createdAt,value
2018-06-04T00:02:10.786Z,4.00
2018-06-04T00:04:38.035Z,3.60
2018-06-04T00:07:05.270Z,3.70
2018-06-04T00:09:32.499Z,4.00
2018-06-04T00:11:59.766Z,3.70
2018-06-04T00:14:26.997Z,3.70
2018-06-04T00:16:54.272Z,4.43
2018-06-04T00:19:21.506Z,3.70
2018-06-04T00:21:48.755Z,4.13
2018-06-04T00:24:16.022Z,3.70
2018-06-04T00:26:43.252Z,4.40
2018-06-04T00:29:10.497Z,3.70
2018-06-04T00:31:37.735Z,3.27
2018-06-04T00:34:04.969Z,3.77
2018-06-04T00:36:32.318Z,3.53
2018-06-04T00:38:59.586Z,3.57
2018-06-04T00:41:26.873Z,3.87
2018-06-04T00:43:54.133Z,4.30
2018-06-04T00:46:21.389Z,3.13
2018-06-04T00:48:48.625Z,3.50
2018-06-04T00:51:15.893Z,3.27
2018-06-04T00:53:43.121Z,3.70
2018-06-04T00:56:16.071Z,4.20
2018-06-04T00:58:43.318Z,5.43
2018-06-04T01:01:10.547Z,5.30
2018-06-04T01:03:37.795Z,4.13
2018-06-04T01:06:05.214Z,3.63
2018-06-04T01:08:32.436Z,3.77
2018-06-04T01:10:59.663Z,3.20
2018-06-04T01:13:26.889Z,3.17
2018-06-04T01:15:54.130Z,3.47
2018-06-04T01:18:21.375Z,3.57
2018-06-04T01:20:48.645Z,3.20
2018-06-04T01:23:15.877Z,3.40
2018-06-04T01:25:43.102Z,3.27
2018-06-04T01:28:10.337Z,3.90
2018-06-04T01:30:37.592Z,3.60
2018-06-04T01:33:04.830Z,3.50
2018-06-04T01:35:32.079Z,3.60
2018-06-04T01:37:59.299Z,3.37
2018-06-04T01:40:26.538Z,3.67
2018-06-04T01:42:53.822Z,3.60
2018-06-04T01:45:21.078Z,3.63
2018-06-04T01:47:48.320Z,3.50
2018-06-04T01:50:15.554Z,3.90
2018-06-04T01:52:42.807Z,4.10
2018-06-04T01:55:10.027Z,3.83
2018-06-04T01:57:37.274Z,3.57
2018-06-04T02:00:04.547Z,3.70
2018-06-04T02:02:31.802Z,4.00
2018-06-04T02:04:59.050Z,3.30
2018-06-04T02:07:26.285Z,3.47
2018-06-04T02:09:53.531Z,3.50
2018-06-04T02:12:20.778Z,3.90
2018-06-04T02:14:48.017Z,3.17
2018-06-04T02:17:15.263Z,3.80
2018-06-04T02:19:42.485Z,3.37
2018-06-04T02:22:09.733Z,3.73
2018-06-04T02:24:36.965Z,3.50
2018-06-04T02:27:04.232Z,3.40
2018-06-04T02:29:31.487Z,3.70
2018-06-04T02:31:58.729Z,3.90
2018-06-04T02:34:25.966Z,4.00
2018-06-04T02:36:53.235Z,3.93
2018-06-04T02:39:20.478Z,4.10
2018-06-04T02:41:47.711Z,3.93
2018-06-04T02:44:14.953Z,3.93
2018-06-04T02:46:42.238Z,4.13
2018-06-04T02:49:09.488Z,4.20
2018-06-04T02:51:36.709Z,3.10
2018-06-04T02:54:03.953Z,3.53
2018-06-04T02:56:31.190Z,3.90
2018-06-04T02:58:58.430Z,4.57
2018-06-04T03:01:25.762Z,4.70
2018-06-04T03:03:53.015Z,3.63
2018-06-04T03:06:20.257Z,3.07
2018-06-04T03:08:47.493Z,3.97
2018-06-04T03:11:14.758Z,3.50
2018-06-04T03:13:42.020Z,2.80
2018-06-04T03:16:09.296Z,3.20
2018-06-04T03:18:36.525Z,3.47
2018-06-04T03:21:03.802Z,4.43
2018-06-04T03:23:31.054Z,3.90
2018-06-04T03:25:58.288Z,4.07
2018-06-04T03:28:25.514Z,3.53
2018-06-04T03:30:52.772Z,3.40
2018-06-04T03:33:20.006Z,3.17
2018-06-04T03:35:47.322Z,2.80
2018-06-04T03:38:14.569Z,3.07
2018-06-04T03:40:41.809Z,3.13
2018-06-04T03:43:09.056Z,2.90
2018-06-04T03:45:36.351Z,3.70
2018-06-04T03:48:03.684Z,3.50
2018-06-04T03:50:31.026Z,3.00
2018-06-04T03:52:58.274Z,3.83
2018-06-04T03:55:25.589Z,3.23
2018-06-04T03:57:53.031Z,3.50
2018-06-04T04:00:20.274Z,3.10
2018-06-04T04:02:47.519Z,2.63
2018-06-04T04:05:14.808Z,2.97
2018-06-04T04:07:42.088Z,2.93
2018-06-04T04:10:09.336Z,2.80
2018-06-04T04:12:36.606Z,3.03
2018-06-04T04:15:03.858Z,3.00
2018-06-04T04:17:31.118Z,2.90
2018-06-04T04:19:58.422Z,3.37
2018-06-04T04:22:25.654Z,2.70
2018-06-04T04:24:52.931Z,2.87
2018-06-04T04:27:20.182Z,2.43
2018-06-04T04:29:47.587Z,3.40
2018-06-04T04:32:14.881Z,2.80
2018-06-04T04:34:42.142Z,2.87
2018-06-04T04:37:09.408Z,2.93
2018-06-04T04:39:36.647Z,3.17
2018-06-04T04:42:03.918Z,3.43
2018-06-04T04:44:31.273Z,3.47
2018-06-04T04:46:58.497Z,3.40
2018-06-04T04:49:25.751Z,3.40
2018-06-04T04:51:53.003Z,3.07
2018-06-04T04:54:20.261Z,3.60
2018-06-04T04:56:47.557Z,3.40
2018-06-04T04:59:14.825Z,4.03
2018-06-04T05:01:42.102Z,2.37
2018-06-04T05:04:09.351Z,2.80
2018-06-04T05:06:36.585Z,2.60
2018-06-04T05:09:06.018Z,2.53
2018-06-04T05:11:33.277Z,2.57
2018-06-04T05:14:00.577Z,2.63
2018-06-04T05:16:27.835Z,3.00
2018-06-04T05:18:55.167Z,2.93
2018-06-04T05:21:22.610Z,3.13
2018-06-04T05:23:49.940Z,2.57
2018-06-04T05:26:17.194Z,2.97
2018-06-04T05:28:44.427Z,2.60
2018-06-04T05:31:11.705Z,3.40
2018-06-04T05:33:38.934Z,3.30
2018-06-04T05:36:06.218Z,2.97
2018-06-04T05:38:33.471Z,3.60
2018-06-04T05:41:00.714Z,3.07
2018-06-04T05:43:27.976Z,3.20
2018-06-04T05:45:55.271Z,3.80
2018-06-04T05:48:22.513Z,2.80
2018-06-04T05:50:49.775Z,3.70
2018-06-04T05:53:17.033Z,3.00
2018-06-04T05:55:44.315Z,3.07
2018-06-04T05:58:11.579Z,3.17
2018-06-04T06:00:38.866Z,2.90
2018-06-04T06:03:06.116Z,3.87
2018-06-04T06:05:33.480Z,4.10
2018-06-04T06:08:00.803Z,3.20
2018-06-04T06:10:28.062Z,3.33
2018-06-04T06:12:55.337Z,4.33
2018-06-04T06:15:22.561Z,4.20
2018-06-04T06:17:49.854Z,3.80
2018-06-04T06:20:17.102Z,3.83
2018-06-04T06:22:44.354Z,3.90
2018-06-04T06:25:11.593Z,4.27
2018-06-04T06:27:38.862Z,3.43
2018-06-04T06:30:06.144Z,3.57
2018-06-04T06:32:33.417Z,3.23
2018-06-04T06:35:00.690Z,4.67
2018-06-04T06:37:27.970Z,3.67
2018-06-04T06:39:55.214Z,4.07
2018-06-04T06:42:22.480Z,3.87
2018-06-04T06:44:49.744Z,3.57
2018-06-04T06:47:17.066Z,3.77
2018-06-04T06:49:44.338Z,3.70
2018-06-04T06:52:11.594Z,4.20
2018-06-04T06:54:38.850Z,3.67
2018-06-04T06:57:06.090Z,4.17
2018-06-04T06:59:33.363Z,3.10
2018-06-04T07:02:00.683Z,2.70
2018-06-04T07:04:28.130Z,3.77
2018-06-04T07:06:55.422Z,3.73
2018-06-04T07:09:22.674Z,3.67
2018-06-04T07:11:49.966Z,4.20
2018-06-04T07:14:17.206Z,3.17
2018-06-04T07:16:44.634Z,3.70
2018-06-04T07:19:11.893Z,3.77
2018-06-04T07:21:39.117Z,4.10
2018-06-04T07:24:06.375Z,3.60
2018-06-04T07:26:33.626Z,3.70
2018-06-04T07:29:00.876Z,3.67
2018-06-04T07:31:28.121Z,3.13
2018-06-04T07:33:55.556Z,4.00
2018-06-04T07:36:22.821Z,3.90
2018-06-04T07:38:50.097Z,4.07
2018-06-04T07:41:17.963Z,3.77
2018-06-04T07:43:45.397Z,3.63
2018-06-04T07:46:12.660Z,4.00
2018-06-04T07:48:39.916Z,3.77
2018-06-04T07:51:07.150Z,3.50
2018-06-04T07:53:34.442Z,3.77
2018-06-04T07:56:01.734Z,3.60
2018-06-04T07:58:29.064Z,3.40
2018-06-04T08:00:56.297Z,3.87
2018-06-04T08:03:23.590Z,4.30
2018-06-04T08:05:50.914Z,3.63
2018-06-04T08:08:18.293Z,4.40
2018-06-04T08:10:45.566Z,3.80
2018-06-04T08:13:12.819Z,4.00
2018-06-04T08:15:40.070Z,3.80
2018-06-04T08:18:07.317Z,3.40
2018-06-04T08:20:34.591Z,3.90
2018-06-04T08:23:01.956Z,3.57
2018-06-04T08:25:29.219Z,3.60
2018-06-04T08:27:56.446Z,3.80
2018-06-04T08:30:23.687Z,3.43
2018-06-04T08:32:50.967Z,3.60
2018-06-04T08:35:18.522Z,3.90
2018-06-04T08:37:45.795Z,3.87
2018-06-04T08:40:13.069Z,3.93
2018-06-04T08:42:40.481Z,3.13
2018-06-04T08:45:08.286Z,3.13
2018-06-04T08:47:35.510Z,3.50
2018-06-04T08:50:02.784Z,3.37
2018-06-04T08:52:30.037Z,3.90
2018-06-04T08:54:57.432Z,3.53
2018-06-04T08:57:24.681Z,3.57
2018-06-04T08:59:51.959Z,3.53
2018-06-04T09:02:19.184Z,3.50
2018-06-04T09:04:46.434Z,4.00
2018-06-04T09:07:13.815Z,3.17
2018-06-04T09:09:41.386Z,3.83
2018-06-04T09:12:08.647Z,3.40
2018-06-04T09:14:35.902Z,3.90
2018-06-04T09:17:03.255Z,3.57
2018-06-04T09:19:30.491Z,4.10
2018-06-04T09:21:57.723Z,3.77
2018-06-04T09:24:25.020Z,3.93
2018-06-04T09:26:52.266Z,5.00
2018-06-04T09:29:19.504Z,4.80
2018-06-04T09:31:46.806Z,4.70
2018-06-04T09:34:14.069Z,5.67
2018-06-04T09:36:41.332Z,4.63
2018-06-04T09:39:08.806Z,4.87
2018-06-04T09:41:36.067Z,4.03
2018-06-04T09:44:03.347Z,4.00
2018-06-04T09:46:30.604Z,5.00
2018-06-04T09:48:57.862Z,4.83
2018-06-04T09:51:25.112Z,4.27
2018-06-04T09:53:52.434Z,3.20
2018-06-04T09:56:19.805Z,4.40
2018-06-04T09:58:47.090Z,4.37
2018-06-04T10:01:14.333Z,3.70
2018-06-04T10:03:41.589Z,4.37
2018-06-04T10:06:08.850Z,4.00
2018-06-04T10:08:36.194Z,3.57
2018-06-04T10:11:03.566Z,3.47
2018-06-04T10:13:30.864Z,3.57
2018-06-04T10:15:58.104Z,4.80
2018-06-04T10:18:25.331Z,4.10
2018-06-04T10:20:52.585Z,3.40
2018-06-04T10:23:19.926Z,2.70
2018-06-04T10:25:47.173Z,2.63
2018-06-04T10:28:14.429Z,2.63
2018-06-04T10:30:41.674Z,2.47
2018-06-04T10:33:08.950Z,2.73
2018-06-04T10:35:36.299Z,2.97
2018-06-04T10:38:03.553Z,3.10
2018-06-04T10:40:31.752Z,3.27
2018-06-04T10:42:59.155Z,3.30
2018-06-04T10:45:26.393Z,3.70
2018-06-04T10:47:53.638Z,2.70
2018-06-04T10:50:20.906Z,2.97
2018-06-04T10:52:48.157Z,3.20
2018-06-04T10:55:15.425Z,3.37
2018-06-04T10:57:42.692Z,3.07
2018-06-04T11:00:09.934Z,3.03
2018-06-04T11:02:37.213Z,2.87
2018-06-04T11:05:04.481Z,3.43
2018-06-04T11:07:31.805Z,2.93
2018-06-04T11:09:59.233Z,2.90
2018-06-04T11:12:26.633Z,2.43
2018-06-04T11:14:53.851Z,2.40
2018-06-04T11:17:21.113Z,2.53
2018-06-04T11:19:48.359Z,3.27
2018-06-04T11:22:15.614Z,3.00
2018-06-04T11:24:42.853Z,3.43
2018-06-04T11:27:10.123Z,3.20
2018-06-04T11:29:37.482Z,3.47
2018-06-04T11:32:04.772Z,3.30
2018-06-04T11:34:32.044Z,3.57
2018-06-04T11:36:59.306Z,3.40
2018-06-04T11:39:26.578Z,3.67
2018-06-04T11:41:53.852Z,3.17
2018-06-04T11:44:21.087Z,3.30
2018-06-04T11:46:48.340Z,3.50
2018-06-04T11:49:15.587Z,3.40
2018-06-04T11:51:42.852Z,3.40
2018-06-04T11:54:10.150Z,3.20
2018-06-04T11:56:37.418Z,3.33
2018-06-04T11:59:04.903Z,3.20
2018-06-04T12:01:32.200Z,3.00
2018-06-04T12:03:59.493Z,2.70
2018-06-04T12:06:26.747Z,3.27
2018-06-04T12:08:54.020Z,2.93
2018-06-04T12:11:21.296Z,3.10
2018-06-04T12:13:48.722Z,3.30
2018-06-04T12:16:16.000Z,3.43
2018-06-04T12:18:43.257Z,2.83
2018-06-04T12:21:10.580Z,3.80
2018-06-04T12:23:37.954Z,3.60
2018-06-04T12:26:05.215Z,3.43
2018-06-04T12:28:32.476Z,4.20
2018-06-04T12:30:59.717Z,3.30
2018-06-04T12:33:27.001Z,3.23
2018-06-04T12:35:54.238Z,3.40
2018-06-04T12:38:21.567Z,3.80
2018-06-04T12:40:48.819Z,3.20
2018-06-04T12:43:16.076Z,3.40
2018-06-04T12:45:43.321Z,3.50
2018-06-04T12:48:10.607Z,3.40
2018-06-04T12:50:38.037Z,3.53
2018-06-04T12:53:05.333Z,3.47
2018-06-04T12:55:32.597Z,3.40
2018-06-04T12:57:59.901Z,2.70
2018-06-04T13:00:27.185Z,4.83
2018-06-04T13:02:54.463Z,4.20
2018-06-04T13:05:21.817Z,3.60
2018-06-04T13:07:49.084Z,3.30
2018-06-04T13:10:17.424Z,3.10
2018-06-04T13:12:44.719Z,3.30
2018-06-04T13:15:11.976Z,3.20
2018-06-04T13:17:39.211Z,2.80
2018-06-04T13:20:06.580Z,3.07
2018-06-04T13:22:33.906Z,2.67
2018-06-04T13:25:01.268Z,3.00
2018-06-04T13:27:28.552Z,3.17
2018-06-04T13:29:55.975Z,2.63
2018-06-04T13:32:23.296Z,3.23
2018-06-04T13:34:50.591Z,2.57
2018-06-04T13:37:18.028Z,3.13
2018-06-04T13:39:45.275Z,2.97
2018-06-04T13:42:12.555Z,2.90
2018-06-04T13:44:40.051Z,3.33
2018-06-04T13:47:09.046Z,3.40
2018-06-04T13:49:36.272Z,3.00
2018-06-04T13:52:03.622Z,3.20
2018-06-04T13:54:30.893Z,2.90
2018-06-04T13:56:58.146Z,3.03
2018-06-04T13:59:25.434Z,3.23
2018-06-04T14:01:52.685Z,3.17
2018-06-04T14:04:20.038Z,3.20
2018-06-04T14:06:47.344Z,3.53
2018-06-04T14:09:14.594Z,3.90
2018-06-04T14:11:41.871Z,3.40
2018-06-04T14:14:09.206Z,3.97
2018-06-04T14:16:36.454Z,3.30
2018-06-04T14:19:03.704Z,3.67
2018-06-04T14:21:30.971Z,3.80
2018-06-04T14:23:58.204Z,3.40
2018-06-04T14:26:26.503Z,3.10
2018-06-04T14:28:53.729Z,3.23
2018-06-04T14:31:21.024Z,3.17
2018-06-04T14:33:48.284Z,3.47
2018-06-04T14:36:15.521Z,3.30
2018-06-04T14:38:42.781Z,3.33
2018-06-04T14:41:10.114Z,3.57
2018-06-04T14:43:37.404Z,3.47
2018-06-04T14:46:04.649Z,3.33
2018-06-04T14:48:31.922Z,3.17
2018-06-04T14:50:59.165Z,3.40
2018-06-04T14:53:26.459Z,3.27
2018-06-04T14:55:53.702Z,3.67
2018-06-04T14:58:21.069Z,3.40
2018-06-04T15:00:48.346Z,3.53
2018-06-04T15:03:15.631Z,3.87
2018-06-04T15:05:42.901Z,4.07
2018-06-04T15:08:10.151Z,3.57
2018-06-04T15:10:37.531Z,3.70
2018-06-04T15:13:04.758Z,3.53
2018-06-04T15:15:32.046Z,3.50
2018-06-04T15:17:59.295Z,3.67
2018-06-04T15:20:26.619Z,4.13
2018-06-04T15:22:53.883Z,3.77
2018-06-04T15:25:21.160Z,3.23
2018-06-04T15:27:48.414Z,4.40
2018-06-04T15:30:15.641Z,4.00
2018-06-04T15:32:42.929Z,3.67
2018-06-04T15:35:10.279Z,4.00
2018-06-04T15:37:37.617Z,4.27
2018-06-04T15:40:05.066Z,4.07
2018-06-04T15:42:32.409Z,3.97
2018-06-04T15:44:59.750Z,3.53
2018-06-04T15:47:27.045Z,3.80
2018-06-04T15:49:54.334Z,3.93
2018-06-04T15:52:21.615Z,3.40
2018-06-04T15:54:48.909Z,4.30
2018-06-04T15:57:16.198Z,3.80
2018-06-04T15:59:43.466Z,3.90
2018-06-04T16:02:10.754Z,3.30
2018-06-04T16:04:38.028Z,3.53
2018-06-04T16:07:05.283Z,3.90
2018-06-04T16:09:32.573Z,3.83
2018-06-04T16:12:00.049Z,3.60
2018-06-04T16:14:27.490Z,4.13
2018-06-04T16:16:54.746Z,4.03
2018-06-04T16:19:22.083Z,3.90
2018-06-04T16:21:49.516Z,4.80
2018-06-04T16:24:16.797Z,3.50
2018-06-04T16:26:44.101Z,3.10
2018-06-04T16:29:11.405Z,3.63
2018-06-04T16:31:38.715Z,4.20
2018-06-04T16:34:05.993Z,3.43
2018-06-04T16:36:33.373Z,3.70
2018-06-04T16:39:00.730Z,3.63
2018-06-04T16:41:28.009Z,3.00
2018-06-04T16:43:55.502Z,3.27
2018-06-04T16:46:22.934Z,3.37
2018-06-04T16:48:50.225Z,2.90
2018-06-04T16:51:17.491Z,3.47
2018-06-04T16:53:44.766Z,3.10
2018-06-04T16:56:12.055Z,3.77
2018-06-04T16:58:39.306Z,3.47
2018-06-04T17:01:06.590Z,3.80
2018-06-04T17:03:33.886Z,3.50
2018-06-04T17:06:01.169Z,3.07
2018-06-04T17:08:28.508Z,3.20
2018-06-04T17:10:55.959Z,2.83
2018-06-04T17:13:23.301Z,3.13
2018-06-04T17:15:51.073Z,3.50
2018-06-04T17:18:18.442Z,3.23
2018-06-04T17:20:45.697Z,3.27
2018-06-04T17:23:13.021Z,2.73
2018-06-04T17:25:40.258Z,3.30
2018-06-04T17:28:07.532Z,3.37
2018-06-04T17:30:34.806Z,2.93
2018-06-04T17:33:02.104Z,3.37
2018-06-04T17:35:29.386Z,3.07
2018-06-04T17:37:56.661Z,2.90
2018-06-04T17:40:23.928Z,3.27
2018-06-04T17:42:51.285Z,4.33
2018-06-04T17:45:18.573Z,4.00
2018-06-04T17:47:45.839Z,6.00
2018-06-04T17:50:13.126Z,4.03
2018-06-04T17:52:40.375Z,3.40
2018-06-04T17:55:07.642Z,3.43
2018-06-04T17:57:34.981Z,3.60
2018-06-04T18:00:02.251Z,3.23
2018-06-04T18:02:29.538Z,3.80
2018-06-04T18:04:56.794Z,4.10
2018-06-04T18:07:24.116Z,3.70
2018-06-04T18:09:51.375Z,4.53
2018-06-04T18:12:18.629Z,4.07
2018-06-04T18:14:45.967Z,2.93
2018-06-04T18:17:13.423Z,3.83
2018-06-04T18:19:40.878Z,4.20
2018-06-04T18:22:08.167Z,3.53
2018-06-04T18:24:35.563Z,3.87
2018-06-04T18:27:02.848Z,4.33
2018-06-04T18:29:30.216Z,4.57
2018-06-04T18:31:57.540Z,5.03
2018-06-04T18:34:24.831Z,3.67
2018-06-04T18:36:52.109Z,4.60
2018-06-04T18:39:19.376Z,5.20
2018-06-04T18:41:46.681Z,4.40
2018-06-04T18:44:14.006Z,5.00
2018-06-04T18:46:41.310Z,4.90
2018-06-04T18:49:08.602Z,4.93
2018-06-04T18:51:35.875Z,4.60
2018-06-04T18:54:03.171Z,4.77
2018-06-04T18:56:30.553Z,4.53
2018-06-04T18:58:57.862Z,4.70
2018-06-04T19:01:25.279Z,4.30
2018-06-04T19:03:52.556Z,4.60
2018-06-04T19:06:19.847Z,4.40
2018-06-04T19:08:47.327Z,5.17
2018-06-04T19:11:14.791Z,4.80
2018-06-04T19:13:42.083Z,6.37
2018-06-04T19:16:09.388Z,4.80
2018-06-04T19:18:36.788Z,5.17
2018-06-04T19:21:04.049Z,5.17
2018-06-04T19:23:31.364Z,5.00
2018-06-04T19:25:58.665Z,4.90
2018-06-04T19:28:25.933Z,5.47
2018-06-04T19:30:53.298Z,4.93
2018-06-04T19:35:54.983Z,4.53
2018-06-04T19:38:22.270Z,5.70
2018-06-04T19:40:49.633Z,4.87
2018-06-04T19:43:16.934Z,5.47
2018-06-04T19:45:44.405Z,4.00
2018-06-04T19:48:11.685Z,5.27
2018-06-04T19:50:39.210Z,5.23
2018-06-04T19:53:06.613Z,5.40
2018-06-04T19:55:33.941Z,4.47
2018-06-04T19:58:01.321Z,5.43
2018-06-04T20:00:28.749Z,5.50
2018-06-04T20:02:56.054Z,4.20
2018-06-04T20:05:23.373Z,4.60
2018-06-04T20:07:50.799Z,5.13
2018-06-04T20:10:18.102Z,4.83
2018-06-04T20:12:45.422Z,5.67
2018-06-04T20:15:12.705Z,4.43
2018-06-04T20:17:40.087Z,5.20
2018-06-04T20:20:08.240Z,5.43
2018-06-04T20:22:35.574Z,5.03
2018-06-04T20:25:02.948Z,4.60
2018-06-04T20:27:30.259Z,4.53
2018-06-04T20:29:57.576Z,5.67
2018-06-04T20:32:24.886Z,5.23
2018-06-04T20:34:52.188Z,4.30
2018-06-04T20:37:19.604Z,5.33
2018-06-04T20:39:46.944Z,5.50
2018-06-04T20:42:14.256Z,5.77
2018-06-04T20:44:41.643Z,4.93
2018-06-04T20:47:09.013Z,5.73
2018-06-04T20:49:36.296Z,5.30
2018-06-04T20:52:03.589Z,5.17
2018-06-04T20:54:30.947Z,4.83
2018-06-04T20:56:58.234Z,5.27
2018-06-04T20:59:25.513Z,5.50
2018-06-04T21:01:52.830Z,6.20
2018-06-04T21:04:20.389Z,5.60
2018-06-04T21:06:47.757Z,5.70
2018-06-04T21:09:15.146Z,4.60
2018-06-04T21:11:42.457Z,5.73
2018-06-04T21:14:09.794Z,5.43
2018-06-04T21:16:37.077Z,5.90
2018-06-04T21:19:04.436Z,5.07
2018-06-04T21:21:31.735Z,4.63
2018-06-04T21:23:59.066Z,5.40
2018-06-04T21:26:26.354Z,5.30
2018-06-04T21:28:53.618Z,5.03
2018-06-04T21:31:20.990Z,5.83
2018-06-04T21:33:48.266Z,5.13
2018-06-04T21:36:15.560Z,5.40
2018-06-04T21:38:42.828Z,5.50
2018-06-04T21:41:10.161Z,6.20
2018-06-04T21:43:37.454Z,4.90
2018-06-04T21:46:04.746Z,5.77
2018-06-04T21:48:32.070Z,5.83
2018-06-04T21:50:59.444Z,5.80
2018-06-04T21:53:26.746Z,6.33
2018-06-04T21:55:54.036Z,6.20
2018-06-04T21:58:21.334Z,5.73
2018-06-04T22:00:48.641Z,6.23
2018-06-04T22:03:15.894Z,5.10
2018-06-04T22:05:43.157Z,6.13
2018-06-04T22:08:10.406Z,5.90
2018-06-04T22:10:37.726Z,6.23
2018-06-04T22:13:05.077Z,5.97
2018-06-04T22:15:32.329Z,5.60
2018-06-04T22:17:59.638Z,5.70
2018-06-04T22:20:26.943Z,6.30
2018-06-04T22:22:54.196Z,5.83
2018-06-04T22:25:21.445Z,6.17
2018-06-04T22:27:48.698Z,6.03
2018-06-04T22:30:16.109Z,6.50
2018-06-04T22:32:43.346Z,6.50
2018-06-04T22:35:10.572Z,6.20
2018-06-04T22:37:37.858Z,6.53
2018-06-04T22:40:05.125Z,6.40
2018-06-04T22:42:32.393Z,6.20
2018-06-04T22:44:59.615Z,6.27
2018-06-04T22:47:26.875Z,6.07
2018-06-04T22:49:54.138Z,6.10
2018-06-04T22:52:21.406Z,6.70
2018-06-04T22:54:48.720Z,6.17
2018-06-04T22:57:16.161Z,6.20
2018-06-04T22:59:43.414Z,5.80
2018-06-04T23:02:10.674Z,7.00
2018-06-04T23:04:37.929Z,6.03
2018-06-04T23:07:05.174Z,6.07
2018-06-04T23:09:32.465Z,5.87
2018-06-04T23:11:59.695Z,6.70
2018-06-04T23:14:26.949Z,7.30
2018-06-04T23:16:54.195Z,7.00
2018-06-04T23:19:21.478Z,6.80
2018-06-04T23:21:48.747Z,8.00
2018-06-04T23:24:15.985Z,6.43
2018-06-04T23:26:43.237Z,6.60
2018-06-04T23:29:10.493Z,7.03
2018-06-04T23:31:37.733Z,6.27
2018-06-04T23:34:04.962Z,6.50
2018-06-04T23:36:32.237Z,6.10
2018-06-04T23:38:59.501Z,6.50
2018-06-04T23:41:26.759Z,5.90
2018-06-04T23:43:54.004Z,6.00
2018-06-04T23:46:21.250Z,5.70
2018-06-04T23:48:48.529Z,5.70
2018-06-04T23:51:15.758Z,5.80
2018-06-04T23:53:43.017Z,5.87
2018-06-04T23:56:10.245Z,5.67
2018-06-04T23:58:37.517Z,5.80
